createdAt,value
2022-11-26T00:01:14.939Z,5.03
2022-11-26T00:03:42.946Z,5.04
2022-11-26T00:06:26.950Z,5.01
2022-11-26T00:08:54.653Z,4.99
2022-11-26T00:11:22.458Z,4.98
2022-11-26T00:13:50.164Z,4.96
2022-11-26T00:16:17.909Z,4.91
2022-11-26T00:18:45.610Z,4.92
2022-11-26T00:21:19.678Z,4.87
2022-11-26T00:23:48.812Z,4.87
2022-11-26T00:26:19.351Z,4.83
2022-11-26T00:28:51.689Z,4.73
2022-11-26T00:31:19.530Z,4.77
2022-11-26T00:33:47.816Z,4.79
2022-11-26T00:36:19.837Z,4.77
2022-11-26T00:38:54.153Z,4.77
2022-11-26T00:41:24.055Z,4.79
2022-11-26T00:43:52.317Z,4.82
2022-11-26T00:46:22.069Z,4.79
2022-11-26T00:48:50.008Z,4.80
2022-11-26T00:51:20.133Z,4.78
2022-11-26T00:53:50.089Z,4.78
2022-11-26T00:56:19.904Z,4.79
2022-11-26T00:58:48.925Z,4.76
2022-11-26T01:01:21.250Z,4.75
2022-11-26T01:03:48.995Z,4.73
2022-11-26T01:06:19.816Z,4.74
2022-11-26T01:08:49.568Z,4.78
2022-11-26T01:11:19.207Z,4.78
2022-11-26T01:13:50.064Z,4.76
2022-11-26T01:16:21.981Z,4.79
2022-11-26T01:18:51.356Z,4.83
2022-11-26T01:21:19.852Z,4.86
2022-11-26T01:23:49.137Z,4.88
2022-11-26T01:26:18.539Z,4.92
2022-11-26T01:28:46.973Z,4.92
2022-11-26T01:31:17.484Z,4.93
2022-11-26T01:33:46.257Z,4.96
2022-11-26T01:36:26.974Z,4.94
2022-11-26T01:38:58.981Z,4.95
2022-11-26T01:41:46.292Z,4.97
2022-11-26T01:44:19.807Z,4.96
2022-11-26T01:46:50.532Z,4.99
2022-11-26T01:49:21.422Z,4.95
2022-11-26T01:51:52.013Z,4.99
2022-11-26T01:54:21.068Z,4.92
2022-11-26T01:56:51.807Z,4.96
2022-11-26T01:59:23.060Z,4.99
2022-11-26T02:01:52.351Z,5.01
2022-11-26T02:04:29.432Z,4.97
2022-11-26T02:06:58.191Z,4.98
2022-11-26T02:09:29.189Z,4.87
2022-11-26T02:11:57.352Z,4.93
2022-11-26T02:14:28.162Z,4.94
2022-11-26T02:17:21.725Z,4.94
2022-11-26T02:20:29.119Z,4.95
2022-11-26T02:23:27.954Z,4.94
2022-11-26T02:26:28.554Z,4.96
2022-11-26T02:29:11.197Z,4.90
2022-11-26T02:31:46.116Z,4.90
2022-11-26T02:34:19.274Z,4.87
2022-11-26T02:36:51.012Z,4.89
2022-11-26T02:39:21.471Z,4.88
2022-11-26T02:41:51.805Z,4.86
2022-11-26T02:44:23.399Z,4.74
2022-11-26T02:46:57.410Z,4.76
2022-11-26T02:49:25.532Z,4.74
2022-11-26T02:51:57.183Z,4.79
2022-11-26T02:54:26.790Z,4.84
2022-11-26T02:56:55.518Z,4.85
2022-11-26T02:59:23.555Z,4.81
2022-11-26T03:01:58.678Z,4.84
2022-11-26T03:04:29.720Z,4.86
2022-11-26T03:07:02.868Z,4.82
2022-11-26T03:09:40.298Z,4.83
2022-11-26T03:12:08.500Z,4.84
2022-11-26T03:14:36.498Z,4.87
2022-11-26T03:17:05.795Z,4.91
2022-11-26T03:19:33.555Z,4.87
2022-11-26T03:22:01.244Z,4.88
2022-11-26T03:24:28.949Z,4.95
2022-11-26T03:26:56.633Z,4.97
2022-11-26T03:29:24.464Z,4.94
2022-11-26T03:31:52.249Z,4.92
2022-11-26T03:34:23.146Z,4.97
2022-11-26T03:36:50.926Z,4.98
2022-11-26T03:39:18.850Z,4.99
2022-11-26T03:41:46.569Z,4.98
2022-11-26T03:44:15.390Z,4.99
2022-11-26T03:46:43.241Z,4.97
2022-11-26T03:49:10.946Z,4.97
2022-11-26T03:51:40.076Z,4.95
2022-11-26T03:54:07.821Z,4.94
2022-11-26T03:56:35.494Z,4.92
2022-11-26T03:59:03.140Z,4.95
2022-11-26T04:01:31.003Z,4.94
2022-11-26T04:03:58.708Z,4.95
2022-11-26T04:06:26.528Z,4.93
2022-11-26T04:08:55.538Z,4.91
2022-11-26T04:11:23.228Z,4.81
2022-11-26T04:13:50.895Z,4.77
2022-11-26T04:16:18.643Z,4.81
2022-11-26T04:18:46.328Z,4.84
2022-11-26T04:21:14.163Z,4.84
2022-11-26T04:23:41.809Z,4.91
2022-11-26T04:26:10.922Z,4.91
2022-11-26T04:28:38.631Z,4.89
2022-11-26T04:31:06.614Z,4.87
2022-11-26T04:33:34.280Z,4.86
2022-11-26T04:36:01.988Z,4.87
2022-11-26T04:38:29.903Z,4.79
2022-11-26T04:40:57.557Z,4.76
2022-11-26T04:43:26.604Z,4.72
2022-11-26T04:45:54.386Z,4.75
2022-11-26T04:48:22.213Z,4.76
2022-11-26T04:50:50.682Z,4.70
2022-11-26T04:53:21.777Z,4.69
2022-11-26T04:55:50.378Z,4.67
2022-11-26T04:58:18.551Z,4.65
2022-11-26T05:00:51.080Z,4.57
2022-11-26T05:03:19.531Z,4.61
2022-11-26T05:05:47.699Z,4.57
2022-11-26T05:08:15.690Z,4.54
2022-11-26T05:10:43.417Z,4.54
2022-11-26T05:13:11.197Z,4.57
2022-11-26T05:15:38.897Z,4.56
2022-11-26T05:18:07.995Z,4.61
2022-11-26T05:20:35.672Z,4.56
2022-11-26T05:23:03.345Z,4.60
2022-11-26T05:25:31.059Z,4.51
2022-11-26T05:27:58.768Z,4.44
2022-11-26T05:30:26.508Z,4.46
2022-11-26T05:32:54.231Z,4.48
2022-11-26T05:35:23.413Z,4.51
2022-11-26T05:37:51.130Z,4.50
2022-11-26T05:40:19.018Z,4.51
2022-11-26T05:42:46.834Z,4.52
2022-11-26T05:45:14.547Z,4.55
2022-11-26T05:47:42.241Z,4.51
2022-11-26T05:50:10.885Z,4.62
2022-11-26T05:52:39.890Z,4.66
2022-11-26T05:55:09.192Z,4.68
2022-11-26T05:57:38.530Z,4.78
2022-11-26T06:00:07.926Z,4.82
2022-11-26T06:02:35.714Z,4.85
2022-11-26T06:05:03.764Z,4.90
2022-11-26T06:07:31.583Z,4.88
2022-11-26T06:10:00.661Z,4.95
2022-11-26T06:12:28.335Z,4.93
2022-11-26T06:14:56.019Z,4.99
2022-11-26T06:17:23.773Z,5.02
2022-11-26T06:19:52.297Z,5.06
2022-11-26T06:22:20.222Z,5.08
2022-11-26T06:24:48.011Z,5.07
2022-11-26T06:27:17.056Z,5.10
2022-11-26T06:29:45.091Z,5.10
2022-11-26T06:32:12.769Z,5.11
2022-11-26T06:34:43.761Z,5.12
2022-11-26T06:37:11.881Z,5.01
2022-11-26T06:39:39.565Z,5.11
2022-11-26T06:42:07.236Z,5.09
2022-11-26T06:44:37.863Z,5.07
2022-11-26T06:47:05.872Z,5.03
2022-11-26T06:49:33.652Z,5.01
2022-11-26T06:52:01.328Z,5.01
2022-11-26T06:54:29.126Z,4.93
2022-11-26T06:56:56.874Z,4.95
2022-11-26T06:59:24.691Z,4.89
2022-11-26T07:01:53.864Z,4.92
2022-11-26T07:04:21.616Z,5.00
2022-11-26T07:06:49.379Z,5.05
2022-11-26T07:09:17.152Z,5.04
2022-11-26T07:11:45.117Z,5.00
2022-11-26T07:14:12.767Z,5.04
2022-11-26T07:16:40.536Z,5.02
2022-11-26T07:19:14.964Z,4.99
2022-11-26T07:21:43.156Z,4.99
2022-11-26T07:24:11.049Z,5.03
2022-11-26T07:26:39.478Z,4.97
2022-11-26T07:29:07.267Z,4.94
2022-11-26T07:31:36.259Z,5.05
2022-11-26T07:34:04.083Z,5.02
2022-11-26T07:36:33.628Z,5.12
2022-11-26T07:39:03.776Z,5.04
2022-11-26T07:41:31.997Z,5.05
2022-11-26T07:43:59.857Z,5.06
2022-11-26T07:46:28.495Z,5.06
2022-11-26T07:48:56.865Z,5.14
2022-11-26T07:51:26.772Z,5.17
2022-11-26T07:53:56.846Z,5.13
2022-11-26T07:56:24.553Z,5.16
2022-11-26T07:58:52.628Z,5.23
2022-11-26T08:01:22.160Z,5.22
2022-11-26T08:03:52.024Z,5.28
2022-11-26T08:06:21.722Z,5.36
2022-11-26T08:08:49.815Z,5.42
2022-11-26T08:11:20.668Z,5.42
2022-11-26T08:13:49.220Z,5.38
2022-11-26T08:16:17.014Z,5.46
2022-11-26T08:18:44.821Z,5.45
2022-11-26T08:21:12.615Z,5.42
2022-11-26T08:23:41.014Z,5.49
2022-11-26T08:26:33.641Z,5.53
2022-11-26T08:29:00.328Z,5.58
2022-11-26T08:31:28.734Z,5.66
2022-11-26T08:33:58.276Z,5.62
2022-11-26T08:36:26.904Z,5.69
2022-11-26T08:38:54.668Z,5.68
2022-11-26T08:41:22.702Z,5.68
2022-11-26T08:44:07.709Z,5.77
2022-11-26T08:46:37.950Z,5.83
2022-11-26T08:49:06.774Z,5.84
2022-11-26T08:51:35.085Z,5.86
2022-11-26T08:54:03.060Z,5.92
2022-11-26T08:56:31.170Z,5.97
2022-11-26T08:58:59.254Z,6.05
2022-11-26T09:01:28.859Z,6.14
2022-11-26T09:04:00.374Z,6.29
2022-11-26T09:06:30.862Z,6.42
2022-11-26T09:09:18.532Z,6.61
2022-11-26T09:11:49.365Z,6.82
2022-11-26T09:14:19.685Z,7.04
2022-11-26T09:16:47.915Z,7.20
2022-11-26T09:19:17.826Z,7.28
2022-11-26T09:21:46.154Z,7.22
2022-11-26T09:24:14.279Z,7.10
2022-11-26T09:26:42.236Z,6.97
2022-11-26T09:29:14.188Z,7.05
2022-11-26T09:32:00.823Z,7.08
2022-11-26T09:34:31.284Z,7.04
2022-11-26T09:36:58.970Z,7.10
2022-11-26T09:39:26.828Z,6.98
2022-11-26T09:42:01.775Z,7.04
2022-11-26T09:44:43.721Z,7.08
2022-11-26T09:47:16.544Z,7.04
2022-11-26T09:49:56.280Z,7.04
2022-11-26T09:52:27.713Z,7.13
2022-11-26T09:55:03.372Z,7.23
2022-11-26T09:57:36.816Z,7.32
2022-11-26T10:00:16.919Z,7.48
2022-11-26T10:02:44.715Z,7.54
2022-11-26T10:05:18.468Z,7.65
2022-11-26T10:08:02.451Z,7.71
2022-11-26T10:10:38.705Z,7.87
2022-11-26T10:13:19.793Z,7.68
2022-11-26T10:15:59.261Z,7.74
2022-11-26T10:18:36.861Z,7.78
2022-11-26T10:21:57.057Z,7.95
2022-11-26T10:24:23.209Z,8.11
2022-11-26T10:26:51.605Z,8.15
2022-11-26T10:29:24.378Z,7.90
2022-11-26T10:31:56.345Z,7.82
2022-11-26T10:34:33.386Z,7.75
2022-11-26T10:37:05.488Z,7.63
2022-11-26T10:39:33.370Z,7.48
2022-11-26T10:42:05.609Z,7.44
2022-11-26T10:44:36.990Z,7.37
2022-11-26T10:47:26.602Z,7.35
2022-11-26T10:49:55.506Z,7.43
2022-11-26T10:52:28.116Z,7.39
2022-11-26T10:55:19.843Z,7.21
2022-11-26T10:57:52.559Z,7.30
2022-11-26T11:00:33.626Z,7.34
2022-11-26T11:03:03.047Z,7.42
2022-11-26T11:05:31.450Z,7.51
2022-11-26T11:08:00.750Z,7.57
2022-11-26T11:10:28.622Z,7.58
2022-11-26T11:13:11.020Z,7.56
2022-11-26T11:15:41.054Z,7.62
2022-11-26T11:18:18.940Z,7.52
2022-11-26T11:20:55.650Z,7.54
2022-11-26T11:23:45.819Z,7.44
2022-11-26T11:26:18.995Z,7.35
2022-11-26T11:28:49.562Z,7.34
2022-11-26T11:31:19.352Z,7.41
2022-11-26T11:33:47.222Z,7.26
2022-11-26T11:36:29.876Z,7.19
2022-11-26T11:39:00.694Z,7.24
2022-11-26T11:41:32.788Z,7.26
2022-11-26T11:44:17.950Z,7.11
2022-11-26T11:47:10.858Z,7.23
2022-11-26T11:50:05.544Z,7.07
2022-11-26T11:52:45.128Z,6.98
2022-11-26T11:55:25.946Z,6.91
2022-11-26T11:58:14.522Z,6.83
2022-11-26T12:00:49.533Z,6.87
2022-11-26T12:03:42.420Z,7.00
2022-11-26T12:06:19.079Z,7.29
2022-11-26T12:08:57.271Z,7.38
2022-11-26T12:11:36.487Z,7.59
2022-11-26T12:14:12.089Z,7.90
2022-11-26T12:16:48.330Z,8.39
2022-11-26T12:19:24.530Z,8.49
2022-11-26T12:21:59.215Z,8.33
2022-11-26T12:24:36.515Z,8.25
2022-11-26T12:27:11.338Z,8.26
2022-11-26T12:29:43.070Z,7.97
2022-11-26T12:32:16.147Z,7.76
2022-11-26T12:34:47.959Z,7.66
2022-11-26T12:37:20.371Z,7.56
2022-11-26T12:39:54.323Z,7.49
2022-11-26T12:42:29.970Z,7.88
2022-11-26T12:45:07.131Z,8.14
2022-11-26T12:47:39.259Z,8.19
2022-11-26T12:50:16.349Z,8.18
2022-11-26T12:52:53.623Z,8.17
2022-11-26T12:55:27.147Z,8.04
2022-11-26T12:58:02.189Z,8.19
2022-11-26T13:00:36.199Z,8.18
2022-11-26T13:03:05.943Z,8.15
2022-11-26T13:05:39.265Z,7.99
2022-11-26T13:08:23.771Z,7.82
2022-11-26T13:11:10.054Z,7.85
2022-11-26T13:13:48.993Z,7.95
2022-11-26T13:16:24.935Z,7.76
2022-11-26T13:18:57.335Z,7.77
2022-11-26T13:21:41.174Z,7.74
2022-11-26T13:24:24.931Z,7.67
2022-11-26T13:27:08.271Z,7.66
2022-11-26T13:29:57.791Z,7.59
2022-11-26T13:32:52.968Z,7.67
2022-11-26T13:35:37.141Z,7.62
2022-11-26T13:38:20.677Z,7.84
2022-11-26T13:41:04.081Z,7.86
2022-11-26T13:43:55.190Z,7.93
2022-11-26T13:46:27.209Z,7.97
2022-11-26T13:49:02.559Z,8.09
2022-11-26T13:51:37.121Z,8.43
2022-11-26T13:54:13.340Z,8.41
2022-11-26T13:56:42.889Z,8.26
2022-11-26T13:59:17.270Z,7.97
2022-11-26T14:01:47.350Z,7.97
2022-11-26T14:04:16.464Z,7.53
2022-11-26T14:07:21.234Z,7.42
2022-11-26T14:09:55.010Z,7.22
2022-11-26T14:12:24.712Z,7.13
2022-11-26T14:14:52.850Z,7.10
2022-11-26T14:17:31.115Z,7.11
2022-11-26T14:20:07.814Z,7.06
2022-11-26T14:22:37.725Z,6.86
2022-11-26T14:25:08.445Z,6.87
2022-11-26T14:27:37.871Z,6.81
2022-11-26T14:30:20.706Z,6.76
2022-11-26T14:32:56.731Z,6.68
2022-11-26T14:35:33.563Z,6.63
2022-11-26T14:38:04.916Z,6.50
2022-11-26T14:40:34.762Z,6.34
2022-11-26T14:43:19.575Z,6.15
2022-11-26T14:45:49.511Z,6.12
2022-11-26T14:48:27.248Z,6.02
2022-11-26T14:50:57.564Z,5.86
2022-11-26T14:53:28.646Z,5.68
2022-11-26T14:55:57.085Z,5.54
2022-11-26T14:58:31.768Z,5.50
2022-11-26T15:01:09.276Z,5.36
2022-11-26T15:03:38.751Z,5.20
2022-11-26T15:06:06.828Z,5.13
2022-11-26T15:08:34.567Z,4.95
2022-11-26T15:11:05.290Z,4.80
2022-11-26T15:13:38.552Z,4.63
2022-11-26T15:16:27.491Z,4.50
2022-11-26T15:18:57.518Z,4.42
2022-11-26T15:21:27.999Z,4.37
2022-11-26T15:23:59.189Z,4.23
2022-11-26T15:26:32.903Z,4.16
2022-11-26T15:29:00.679Z,4.08
2022-11-26T15:31:40.482Z,3.95
2022-11-26T15:34:13.270Z,3.74
2022-11-26T15:36:41.264Z,3.57
2022-11-26T15:39:25.917Z,3.46
2022-11-26T15:41:56.034Z,3.30
2022-11-26T15:44:26.280Z,3.23
2022-11-26T15:46:56.797Z,3.14
2022-11-26T15:49:29.284Z,3.15
2022-11-26T15:52:03.622Z,3.02
2022-11-26T15:54:56.563Z,2.96
2022-11-26T15:57:28.197Z,2.83
2022-11-26T15:59:59.030Z,2.79
2022-11-26T16:02:28.716Z,2.72
2022-11-26T16:04:59.164Z,2.67
2022-11-26T16:07:28.881Z,2.64
2022-11-26T16:10:13.369Z,2.48
2022-11-26T16:12:44.578Z,2.34
2022-11-26T16:15:23.735Z,2.21
2022-11-26T16:17:52.124Z,2.17
2022-11-26T16:20:23.413Z,2.16
2022-11-26T16:22:54.438Z,2.01
2022-11-26T16:25:25.063Z,1.93
2022-11-26T16:28:15.301Z,1.80
2022-11-26T16:30:45.011Z,1.67
2022-11-26T16:33:12.797Z,1.64
2022-11-26T16:35:45.793Z,1.55
2022-11-26T16:38:20.765Z,1.58
2022-11-26T16:40:48.757Z,1.49
2022-11-26T16:43:16.516Z,1.44
2022-11-26T16:45:44.670Z,1.51
2022-11-26T16:48:24.049Z,1.45
2022-11-26T16:50:53.417Z,1.35
2022-11-26T16:53:21.083Z,1.28
2022-11-26T16:55:49.816Z,1.22
2022-11-26T16:58:28.169Z,1.14
2022-11-26T17:00:57.183Z,1.07
2022-11-26T17:03:27.429Z,0.92
2022-11-26T17:05:59.413Z,0.86
2022-11-26T17:08:28.147Z,0.74
2022-11-26T17:10:55.921Z,0.64
2022-11-26T17:13:23.884Z,0.58
2022-11-26T17:15:52.171Z,0.64
2022-11-26T17:18:22.092Z,1.20
2022-11-26T17:20:51.151Z,1.55
2022-11-26T17:23:20.450Z,1.65
2022-11-26T17:25:52.972Z,1.61
2022-11-26T17:28:23.130Z,1.52
2022-11-26T17:30:51.433Z,1.37
2022-11-26T17:33:20.001Z,1.27
2022-11-26T17:35:48.116Z,1.22
2022-11-26T17:38:18.124Z,1.12
2022-11-26T17:40:47.928Z,1.00
2022-11-26T17:43:16.970Z,0.89
2022-11-26T17:45:45.247Z,0.80
2022-11-26T17:48:14.616Z,0.76
2022-11-26T17:50:42.741Z,0.73
2022-11-26T17:53:10.683Z,0.76
2022-11-26T17:55:39.698Z,0.73
2022-11-26T17:58:10.979Z,0.70
2022-11-26T18:00:39.002Z,0.64
2022-11-26T18:03:07.071Z,0.55
2022-11-26T18:05:37.876Z,0.48
2022-11-26T18:08:08.317Z,0.44
2022-11-26T18:10:36.074Z,0.42
2022-11-26T18:13:03.846Z,0.39
2022-11-26T18:15:33.138Z,0.34
2022-11-26T18:18:00.886Z,0.27
2022-11-26T18:20:29.922Z,0.21
2022-11-26T18:22:59.818Z,0.24
2022-11-26T18:25:28.501Z,0.18
2022-11-26T18:27:56.588Z,0.15
2022-11-26T18:30:24.684Z,0.18
2022-11-26T18:32:53.886Z,0.06
2022-11-26T18:35:22.903Z,0.04
2022-11-26T18:37:51.150Z,-0.04
2022-11-26T18:40:19.052Z,-0.11
2022-11-26T18:42:46.824Z,-0.13
2022-11-26T18:45:16.165Z,-0.22
2022-11-26T18:47:44.431Z,-0.30
2022-11-26T18:50:14.186Z,-0.43
2022-11-26T18:52:41.942Z,-0.54
2022-11-26T18:55:13.997Z,-0.65
2022-11-26T18:58:07.748Z,-0.75
2022-11-26T19:00:35.848Z,-0.83
2022-11-26T19:03:03.601Z,-0.88
2022-11-26T19:05:32.740Z,-0.90
2022-11-26T19:08:00.629Z,-0.90
2022-11-26T19:10:28.480Z,-0.79
2022-11-26T19:12:56.330Z,-0.74
2022-11-26T19:15:24.544Z,-0.72
2022-11-26T19:17:52.371Z,-0.76
2022-11-26T19:20:20.509Z,-0.83
2022-11-26T19:22:49.760Z,-0.88
2022-11-26T19:25:17.521Z,-0.82
2022-11-26T19:27:45.240Z,-0.89
2022-11-26T19:30:17.270Z,-0.95
2022-11-26T19:32:45.196Z,-1.01
2022-11-26T19:35:14.023Z,-1.03
2022-11-26T19:37:43.427Z,-1.04
2022-11-26T19:40:13.249Z,-1.07
2022-11-26T19:42:40.942Z,-1.02
2022-11-26T19:45:10.205Z,-1.02
2022-11-26T19:47:37.945Z,-1.03
2022-11-26T19:50:06.816Z,-1.02
2022-11-26T19:52:34.574Z,-1.04
2022-11-26T19:55:02.290Z,-1.06
2022-11-26T19:57:31.494Z,-1.07
2022-11-26T19:59:59.343Z,-1.09
2022-11-26T20:02:27.274Z,-1.10
2022-11-26T20:04:56.646Z,-1.17
2022-11-26T20:07:24.423Z,-1.18
2022-11-26T20:09:53.255Z,-1.17
2022-11-26T20:12:21.099Z,-1.21
2022-11-26T20:14:50.443Z,-1.20
2022-11-26T20:17:18.575Z,-1.22
2022-11-26T20:19:47.076Z,-1.23
2022-11-26T20:22:14.837Z,-1.21
2022-11-26T20:24:42.843Z,-1.23
2022-11-26T20:27:10.783Z,-1.20
2022-11-26T20:29:38.712Z,-1.14
2022-11-26T20:32:10.132Z,-1.15
2022-11-26T20:34:38.218Z,-1.20
2022-11-26T20:37:06.277Z,-1.28
2022-11-26T20:39:34.257Z,-1.30
2022-11-26T20:42:02.133Z,-1.33
2022-11-26T20:44:30.389Z,-1.36
2022-11-26T20:46:58.285Z,-1.37
2022-11-26T20:49:32.221Z,-1.42
2022-11-26T20:52:02.197Z,-1.37
2022-11-26T20:54:30.260Z,-1.39
2022-11-26T20:56:58.376Z,-1.33
2022-11-26T20:59:26.706Z,-1.33
2022-11-26T21:01:54.625Z,-1.37
2022-11-26T21:04:22.588Z,-1.39
2022-11-26T21:06:51.884Z,-1.46
2022-11-26T21:09:19.885Z,-1.48
2022-11-26T21:11:47.915Z,-1.50
2022-11-26T21:14:15.823Z,-1.53
2022-11-26T21:16:43.848Z,-1.49
2022-11-26T21:19:12.699Z,-1.42
2022-11-26T21:21:40.747Z,-1.36
2022-11-26T21:24:10.581Z,-1.37
2022-11-26T21:26:38.433Z,-1.41
2022-11-26T21:29:08.278Z,-1.41
2022-11-26T21:31:36.082Z,-1.41
2022-11-26T21:34:07.142Z,-1.42
2022-11-26T21:36:37.319Z,-1.46
2022-11-26T21:39:07.540Z,-1.52
2022-11-26T21:41:37.290Z,-1.60
2022-11-26T21:44:07.753Z,-1.65
2022-11-26T21:46:38.784Z,-1.73
2022-11-26T21:49:07.712Z,-1.77
2022-11-26T21:51:35.605Z,-1.78
2022-11-26T21:54:03.437Z,-1.80
2022-11-26T21:56:32.496Z,-1.80
2022-11-26T21:59:03.727Z,-1.81
2022-11-26T22:01:33.231Z,-1.83
2022-11-26T22:04:03.513Z,-1.84
2022-11-26T22:06:31.499Z,-1.85
2022-11-26T22:08:59.288Z,-1.83
2022-11-26T22:11:29.010Z,-1.89
2022-11-26T22:13:56.941Z,-1.88
2022-11-26T22:16:27.686Z,-1.84
2022-11-26T22:18:57.088Z,-1.83
2022-11-26T22:21:29.164Z,-1.82
2022-11-26T22:23:57.454Z,-1.86
2022-11-26T22:26:28.185Z,-1.85
2022-11-26T22:28:56.117Z,-1.81
2022-11-26T22:31:26.864Z,-1.84
2022-11-26T22:33:55.976Z,-1.85
2022-11-26T22:36:24.123Z,-1.88
2022-11-26T22:38:52.531Z,-1.92
2022-11-26T22:41:21.158Z,-1.94
2022-11-26T22:43:49.620Z,-2.00
2022-11-26T22:46:20.156Z,-1.99
2022-11-26T22:48:52.329Z,-2.02
2022-11-26T22:51:21.116Z,-2.02
2022-11-26T22:53:51.259Z,-2.04
2022-11-26T22:56:19.621Z,-2.08
2022-11-26T23:03:43.055Z,-2.22
2022-11-26T23:06:12.862Z,-2.19
2022-11-26T23:08:41.617Z,-2.23
2022-11-26T23:11:10.988Z,-2.22
2022-11-26T23:13:41.736Z,-2.19
2022-11-26T23:16:10.154Z,-2.23
2022-11-26T23:18:39.342Z,-2.23
2022-11-26T23:21:10.067Z,-2.27
2022-11-26T23:23:39.591Z,-2.30
2022-11-26T23:26:08.818Z,-2.28
2022-11-26T23:28:37.615Z,-2.27
2022-11-26T23:31:08.262Z,-2.24
2022-11-26T23:33:36.805Z,-2.23
2022-11-26T23:36:04.997Z,-2.22
2022-11-26T23:38:34.059Z,-2.25
2022-11-26T23:41:03.359Z,-2.30
2022-11-26T23:43:32.510Z,-2.28
2022-11-26T23:46:04.105Z,-2.28
2022-11-26T23:48:32.550Z,-2.27
2022-11-26T23:51:00.709Z,-2.21
2022-11-26T23:53:28.597Z,-2.17
2022-11-26T23:56:02.661Z,-2.20
2022-11-26T23:58:30.339Z,-2.17
